Weather at San Francisco International Airport

Public forecast

Using degrees Fahrenheit for public forecast. Weather courtesy of forecast.io.

Current aviation weather report (METAR) for San Francisco International Airport

Retrieved 2021/10/22 05:56 UTC (57 minutes ago):

KSFO 220556Z 00000KT 10SM FEW009 SCT017 OVC028 18/14 A3003 RMK AO2 SLP169 T01830144 10194 20178 58002

Aviation forecast (TAF) for San Francisco International Airport

Retrieved 2021/10/22 06:24 UTC (29 minutes ago):

TAF KSFO 220521Z 2206/2312 17010KT P6SM VCSH FEW009 BKN018 BKN050 FM220900 16014G21KT 6SM -RA BR BKN012 OVC020 TEMPO 2212/2214 3SM RA BR OVC010 FM221500 23011G18KT 5SM -RA BR OVC012 FM221800 25008KT 6SM -SHRA BR SCT015 BKN020 BKN030 FM222100 28010KT P6SM VCSH FEW015 SCT025 BKN250 FM230200 27007KT P6SM FEW025 BKN250 FM230800 23005KT P6SM SCT020 BKN250